Aviation Digital Data Service (ADDS)

Output produced by TAFs form (0751 UTC 23 April 2018)
found at http://aviationweather.gov/adds/tafs/
 
METAR text: RJBE 230700Z 23016KT 9999 FEW040 SCT150 BKN/// 19/13 Q1016
Conditions at: RJBE (KOBE , JP) observed 0700 UTC 23 April 2018
Temperature: 19.0°C (66°F)
Dewpoint: 13.0°C (55°F) [RH = 68%]
Pressure (altimeter): 30.00 inches Hg (1016.0 mb)
Winds: from the SW (230 degrees) at 18 MPH (16 knots; 8.3 m/s)
Visibility: 6 or more miles (10+ km)
Ceiling: at least 12,000 feet AGL
Clouds: few clouds at 4000 feet AGL
scattered clouds at 15000 feet AGL
Weather: no significant weather observed at this time